sensor_id;sensor_type;location;lat;lon;timestamp;P1;durP1;ratioP1;P2;durP2;ratioP2
30408;SDS011;17207;52.960;5.916;2024-02-15T00:01:17;4.00;;;1.70;;
30408;SDS011;17207;52.960;5.916;2024-02-15T00:03:43;2.33;;;1.30;;
30408;SDS011;17207;52.960;5.916;2024-02-15T00:06:09;2.78;;;1.42;;
30408;SDS011;17207;52.960;5.916;2024-02-15T00:08:36;3.05;;;1.35;;
30408;SDS011;17207;52.960;5.916;2024-02-15T00:11:02;2.42;;;1.50;;
30408;SDS011;17207;52.960;5.916;2024-02-15T00:13:28;1.80;;;1.17;;
30408;SDS011;17207;52.960;5.916;2024-02-15T00:15:55;4.25;;;1.42;;
30408;SDS011;17207;52.960;5.916;2024-02-15T00:18:20;4.30;;;1.80;;
30408;SDS011;17207;52.960;5.916;2024-02-15T00:20:47;2.55;;;1.10;;
30408;SDS011;17207;52.960;5.916;2024-02-15T00:23:13;3.30;;;1.17;;
30408;SDS011;17207;52.960;5.916;2024-02-15T00:25:41;2.22;;;1.38;;
30408;SDS011;17207;52.960;5.916;2024-02-15T00:28:09;3.10;;;1.55;;
30408;SDS011;17207;52.960;5.916;2024-02-15T00:30:35;2.35;;;1.20;;
30408;SDS011;17207;52.960;5.916;2024-02-15T00:33:02;2.63;;;1.30;;
30408;SDS011;17207;52.960;5.916;2024-02-15T00:35:28;1.73;;;1.08;;
30408;SDS011;17207;52.960;5.916;2024-02-15T00:37:54;3.35;;;1.40;;
30408;SDS011;17207;52.960;5.916;2024-02-15T00:40:20;3.28;;;1.27;;
30408;SDS011;17207;52.960;5.916;2024-02-15T00:42:46;3.15;;;1.52;;
30408;SDS011;17207;52.960;5.916;2024-02-15T00:45:12;3.22;;;1.60;;
30408;SDS011;17207;52.960;5.916;2024-02-15T00:47:38;3.25;;;1.63;;
30408;SDS011;17207;52.960;5.916;2024-02-15T00:50:07;1.63;;;1.00;;
30408;SDS011;17207;52.960;5.916;2024-02-15T00:52:33;2.90;;;1.20;;
30408;SDS011;17207;52.960;5.916;2024-02-15T00:54:59;2.38;;;1.20;;
30408;SDS011;17207;52.960;5.916;2024-02-15T00:57:25;2.15;;;1.13;;
30408;SDS011;17207;52.960;5.916;2024-02-15T00:59:51;1.88;;;1.25;;
30408;SDS011;17207;52.960;5.916;2024-02-15T01:02:17;3.60;;;1.13;;
30408;SDS011;17207;52.960;5.916;2024-02-15T01:04:43;2.13;;;1.30;;
30408;SDS011;17207;52.960;5.916;2024-02-15T01:07:12;2.15;;;1.13;;
30408;SDS011;17207;52.960;5.916;2024-02-15T01:09:38;3.45;;;1.23;;
30408;SDS011;17207;52.960;5.916;2024-02-15T01:12:04;4.50;;;1.83;;
30408;SDS011;17207;52.960;5.916;2024-02-15T01:14:30;2.13;;;1.00;;
30408;SDS011;17207;52.960;5.916;2024-02-15T01:16:56;2.30;;;1.27;;
30408;SDS011;17207;52.960;5.916;2024-02-15T01:19:23;2.60;;;1.30;;
30408;SDS011;17207;52.960;5.916;2024-02-15T01:21:48;3.35;;;1.27;;
30408;SDS011;17207;52.960;5.916;2024-02-15T01:24:15;1.83;;;1.13;;
30408;SDS011;17207;52.960;5.916;2024-02-15T01:26:41;2.88;;;1.13;;
30408;SDS011;17207;52.960;5.916;2024-02-15T01:29:06;3.30;;;1.38;;
30408;SDS011;17207;52.960;5.916;2024-02-15T01:31:37;2.92;;;1.35;;
30408;SDS011;17207;52.960;5.916;2024-02-15T01:34:03;2.38;;;1.17;;
30408;SDS011;17207;52.960;5.916;2024-02-15T01:36:29;1.90;;;1.08;;
30408;SDS011;17207;52.960;5.916;2024-02-15T01:38:55;3.95;;;1.35;;
30408;SDS011;17207;52.960;5.916;2024-02-15T01:41:21;2.47;;;1.02;;
30408;SDS011;17207;52.960;5.916;2024-02-15T01:43:48;2.85;;;1.13;;
30408;SDS011;17207;52.960;5.916;2024-02-15T01:46:15;4.07;;;1.08;;
30408;SDS011;17207;52.960;5.916;2024-02-15T01:48:41;1.92;;;1.02;;
30408;SDS011;17207;52.960;5.916;2024-02-15T01:51:09;2.03;;;1.20;;
30408;SDS011;17207;52.960;5.916;2024-02-15T01:53:35;1.08;;;0.95;;
30408;SDS011;17207;52.960;5.916;2024-02-15T01:56:02;3.25;;;1.13;;
30408;SDS011;17207;52.960;5.916;2024-02-15T01:58:28;1.25;;;0.85;;
30408;SDS011;17207;52.960;5.916;2024-02-15T02:00:59;2.50;;;1.00;;
30408;SDS011;17207;52.960;5.916;2024-02-15T02:03:26;2.80;;;1.00;;
30408;SDS011;17207;52.960;5.916;2024-02-15T02:05:52;2.28;;;1.20;;
30408;SDS011;17207;52.960;5.916;2024-02-15T02:08:18;2.17;;;1.10;;
30408;SDS011;17207;52.960;5.916;2024-02-15T02:10:44;2.67;;;0.80;;
30408;SDS011;17207;52.960;5.916;2024-02-15T02:13:11;2.00;;;0.93;;
30408;SDS011;17207;52.960;5.916;2024-02-15T02:15:37;1.52;;;1.02;;
30408;SDS011;17207;52.960;5.916;2024-02-15T02:18:04;2.20;;;1.15;;
30408;SDS011;17207;52.960;5.916;2024-02-15T02:20:35;2.22;;;1.00;;
30408;SDS011;17207;52.960;5.916;2024-02-15T02:23:07;2.08;;;1.20;;
30408;SDS011;17207;52.960;5.916;2024-02-15T02:25:35;2.72;;;1.10;;
30408;SDS011;17207;52.960;5.916;2024-02-15T02:28:01;1.52;;;0.95;;
30408;SDS011;17207;52.960;5.916;2024-02-15T02:30:27;3.15;;;1.02;;
30408;SDS011;17207;52.960;5.916;2024-02-15T02:32:57;2.88;;;1.20;;
30408;SDS011;17207;52.960;5.916;2024-02-15T02:35:24;2.08;;;1.00;;
30408;SDS011;17207;52.960;5.916;2024-02-15T02:37:50;2.42;;;1.27;;
30408;SDS011;17207;52.960;5.916;2024-02-15T02:40:18;2.88;;;1.05;;
30408;SDS011;17207;52.960;5.916;2024-02-15T02:42:50;2.20;;;1.00;;
30408;SDS011;17207;52.960;5.916;2024-02-15T02:45:17;1.98;;;1.30;;
30408;SDS011;17207;52.960;5.916;2024-02-15T02:47:45;3.03;;;1.40;;
30408;SDS011;17207;52.960;5.916;2024-02-15T02:50:11;1.77;;;1.00;;
30408;SDS011;17207;52.960;5.916;2024-02-15T02:52:37;1.75;;;0.93;;
30408;SDS011;17207;52.960;5.916;2024-02-15T02:55:04;1.65;;;0.82;;
30408;SDS011;17207;52.960;5.916;2024-02-15T02:57:33;2.17;;;1.10;;
30408;SDS011;17207;52.960;5.916;2024-02-15T03:00:01;2.08;;;1.20;;
30408;SDS011;17207;52.960;5.916;2024-02-15T03:02:32;1.35;;;0.90;;
30408;SDS011;17207;52.960;5.916;2024-02-15T03:04:58;1.73;;;0.70;;
30408;SDS011;17207;52.960;5.916;2024-02-15T03:07:27;1.65;;;0.98;;
30408;SDS011;17207;52.960;5.916;2024-02-15T03:09:53;1.35;;;0.90;;
30408;SDS011;17207;52.960;5.916;2024-02-15T03:12:19;1.50;;;0.98;;
30408;SDS011;17207;52.960;5.916;2024-02-15T03:14:45;4.07;;;1.15;;
30408;SDS011;17207;52.960;5.916;2024-02-15T03:17:11;2.20;;;0.90;;
30408;SDS011;17207;52.960;5.916;2024-02-15T03:19:37;2.35;;;1.17;;
30408;SDS011;17207;52.960;5.916;2024-02-15T03:22:03;3.08;;;1.30;;
30408;SDS011;17207;52.960;5.916;2024-02-15T03:24:30;2.70;;;1.08;;
30408;SDS011;17207;52.960;5.916;2024-02-15T03:26:56;2.05;;;1.00;;
30408;SDS011;17207;52.960;5.916;2024-02-15T03:29:22;2.50;;;0.90;;
30408;SDS011;17207;52.960;5.916;2024-02-15T03:31:50;1.15;;;0.65;;
30408;SDS011;17207;52.960;5.916;2024-02-15T03:34:18;2.03;;;1.08;;
30408;SDS011;17207;52.960;5.916;2024-02-15T03:36:46;1.02;;;0.80;;
30408;SDS011;17207;52.960;5.916;2024-02-15T03:39:18;1.42;;;0.90;;
30408;SDS011;17207;52.960;5.916;2024-02-15T03:41:44;4.78;;;1.20;;
30408;SDS011;17207;52.960;5.916;2024-02-15T03:44:11;2.40;;;1.30;;
30408;SDS011;17207;52.960;5.916;2024-02-15T03:46:37;1.50;;;1.00;;
30408;SDS011;17207;52.960;5.916;2024-02-15T03:49:03;2.40;;;1.00;;
30408;SDS011;17207;52.960;5.916;2024-02-15T03:51:31;0.77;;;0.70;;
30408;SDS011;17207;52.960;5.916;2024-02-15T03:53:57;2.30;;;0.85;;
30408;SDS011;17207;52.960;5.916;2024-02-15T03:56:23;2.17;;;0.93;;
30408;SDS011;17207;52.960;5.916;2024-02-15T03:58:49;1.95;;;1.00;;
30408;SDS011;17207;52.960;5.916;2024-02-15T04:01:15;2.50;;;1.52;;
30408;SDS011;17207;52.960;5.916;2024-02-15T04:03:41;1.92;;;1.00;;
30408;SDS011;17207;52.960;5.916;2024-02-15T04:06:07;1.70;;;1.00;;
30408;SDS011;17207;52.960;5.916;2024-02-15T04:08:37;1.80;;;1.00;;
30408;SDS011;17207;52.960;5.916;2024-02-15T04:11:04;1.65;;;0.90;;
30408;SDS011;17207;52.960;5.916;2024-02-15T04:13:31;1.10;;;0.90;;
30408;SDS011;17207;52.960;5.916;2024-02-15T04:15:57;1.05;;;0.80;;
30408;SDS011;17207;52.960;5.916;2024-02-15T04:18:23;1.50;;;0.90;;
30408;SDS011;17207;52.960;5.916;2024-02-15T04:20:49;2.28;;;1.10;;
30408;SDS011;17207;52.960;5.916;2024-02-15T04:23:16;1.60;;;0.83;;
30408;SDS011;17207;52.960;5.916;2024-02-15T04:25:44;1.27;;;0.77;;
30408;SDS011;17207;52.960;5.916;2024-02-15T04:28:16;1.50;;;0.73;;
30408;SDS011;17207;52.960;5.916;2024-02-15T04:30:42;0.95;;;0.80;;
30408;SDS011;17207;52.960;5.916;2024-02-15T04:33:07;1.40;;;0.80;;
30408;SDS011;17207;52.960;5.916;2024-02-15T04:35:34;0.93;;;0.63;;
30408;SDS011;17207;52.960;5.916;2024-02-15T04:38:00;0.93;;;0.73;;
30408;SDS011;17207;52.960;5.916;2024-02-15T04:40:26;1.60;;;1.00;;
30408;SDS011;17207;52.960;5.916;2024-02-15T04:42:52;0.50;;;0.50;;
30408;SDS011;17207;52.960;5.916;2024-02-15T04:45:18;1.10;;;0.90;;
30408;SDS011;17207;52.960;5.916;2024-02-15T04:47:47;0.75;;;0.50;;
30408;SDS011;17207;52.960;5.916;2024-02-15T04:50:16;1.10;;;0.88;;
30408;SDS011;17207;52.960;5.916;2024-02-15T04:52:43;0.93;;;0.70;;
30408;SDS011;17207;52.960;5.916;2024-02-15T04:55:10;0.68;;;0.57;;
30408;SDS011;17207;52.960;5.916;2024-02-15T04:57:36;0.70;;;0.60;;
30408;SDS011;17207;52.960;5.916;2024-02-15T05:00:02;1.58;;;1.00;;
30408;SDS011;17207;52.960;5.916;2024-02-15T05:02:36;0.75;;;0.60;;
30408;SDS011;17207;52.960;5.916;2024-02-15T05:05:06;1.05;;;0.90;;
30408;SDS011;17207;52.960;5.916;2024-02-15T05:07:32;0.93;;;0.50;;
30408;SDS011;17207;52.960;5.916;2024-02-15T05:09:59;2.00;;;0.90;;
30408;SDS011;17207;52.960;5.916;2024-02-15T05:12:25;0.88;;;0.65;;
30408;SDS011;17207;52.960;5.916;2024-02-15T05:14:51;0.65;;;0.60;;
30408;SDS011;17207;52.960;5.916;2024-02-15T05:17:18;0.93;;;0.57;;
30408;SDS011;17207;52.960;5.916;2024-02-15T05:19:44;0.70;;;0.57;;
30408;SDS011;17207;52.960;5.916;2024-02-15T05:22:10;0.70;;;0.50;;
30408;SDS011;17207;52.960;5.916;2024-02-15T05:24:36;1.25;;;0.70;;
30408;SDS011;17207;52.960;5.916;2024-02-15T05:27:04;0.70;;;0.70;;
30408;SDS011;17207;52.960;5.916;2024-02-15T05:29:30;0.68;;;0.68;;
30408;SDS011;17207;52.960;5.916;2024-02-15T05:31:59;0.93;;;0.70;;
30408;SDS011;17207;52.960;5.916;2024-02-15T05:34:26;1.17;;;0.80;;
30408;SDS011;17207;52.960;5.916;2024-02-15T05:36:54;0.85;;;0.63;;
30408;SDS011;17207;52.960;5.916;2024-02-15T05:39:20;0.60;;;0.60;;
30408;SDS011;17207;52.960;5.916;2024-02-15T05:41:47;0.80;;;0.63;;
30408;SDS011;17207;52.960;5.916;2024-02-15T05:44:13;0.60;;;0.60;;
30408;SDS011;17207;52.960;5.916;2024-02-15T05:46:44;0.55;;;0.55;;
30408;SDS011;17207;52.960;5.916;2024-02-15T05:49:10;0.50;;;0.50;;
30408;SDS011;17207;52.960;5.916;2024-02-15T05:51:40;1.20;;;0.70;;
30408;SDS011;17207;52.960;5.916;2024-02-15T05:54:06;2.20;;;0.90;;
30408;SDS011;17207;52.960;5.916;2024-02-15T05:56:32;0.50;;;0.50;;
30408;SDS011;17207;52.960;5.916;2024-02-15T05:58:58;1.17;;;0.73;;
30408;SDS011;17207;52.960;5.916;2024-02-15T06:01:27;1.92;;;0.75;;
30408;SDS011;17207;52.960;5.916;2024-02-15T06:03:54;0.63;;;0.63;;
30408;SDS011;17207;52.960;5.916;2024-02-15T06:06:20;0.85;;;0.70;;
30408;SDS011;17207;52.960;5.916;2024-02-15T06:08:47;0.93;;;0.70;;
30408;SDS011;17207;52.960;5.916;2024-02-15T06:11:18;0.77;;;0.57;;
30408;SDS011;17207;52.960;5.916;2024-02-15T06:13:45;0.70;;;0.60;;
30408;SDS011;17207;52.960;5.916;2024-02-15T06:16:11;0.65;;;0.65;;
30408;SDS011;17207;52.960;5.916;2024-02-15T06:18:37;1.02;;;0.65;;
30408;SDS011;17207;52.960;5.916;2024-02-15T06:21:03;0.70;;;0.50;;
30408;SDS011;17207;52.960;5.916;2024-02-15T06:23:30;0.95;;;0.80;;
30408;SDS011;17207;52.960;5.916;2024-02-15T06:25:58;1.13;;;0.70;;
30408;SDS011;17207;52.960;5.916;2024-02-15T06:28:26;0.75;;;0.60;;
30408;SDS011;17207;52.960;5.916;2024-02-15T06:31:11;0.50;;;0.50;;
30408;SDS011;17207;52.960;5.916;2024-02-15T06:33:56;0.60;;;0.60;;
30408;SDS011;17207;52.960;5.916;2024-02-15T06:36:41;0.95;;;0.70;;
30408;SDS011;17207;52.960;5.916;2024-02-15T06:39:25;0.70;;;0.60;;
30408;SDS011;17207;52.960;5.916;2024-02-15T06:42:06;0.75;;;0.65;;
30408;SDS011;17207;52.960;5.916;2024-02-15T06:44:32;0.60;;;0.60;;
30408;SDS011;17207;52.960;5.916;2024-02-15T06:46:58;0.80;;;0.60;;
30408;SDS011;17207;52.960;5.916;2024-02-15T06:49:24;0.57;;;0.57;;
30408;SDS011;17207;52.960;5.916;2024-02-15T06:51:51;0.65;;;0.57;;
30408;SDS011;17207;52.960;5.916;2024-02-15T06:54:17;0.50;;;0.50;;
30408;SDS011;17207;52.960;5.916;2024-02-15T06:56:47;0.50;;;0.50;;
30408;SDS011;17207;52.960;5.916;2024-02-15T06:59:14;1.27;;;1.00;;
30408;SDS011;17207;52.960;5.916;2024-02-15T07:01:41;0.85;;;0.73;;
30408;SDS011;17207;52.960;5.916;2024-02-15T07:04:07;1.08;;;0.80;;
30408;SDS011;17207;52.960;5.916;2024-02-15T07:09:02;0.60;;;0.60;;
30408;SDS011;17207;52.960;5.916;2024-02-15T07:11:28;0.73;;;0.70;;
30408;SDS011;17207;52.960;5.916;2024-02-15T07:13:55;0.83;;;0.57;;
30408;SDS011;17207;52.960;5.916;2024-02-15T07:16:22;0.75;;;0.60;;
30408;SDS011;17207;52.960;5.916;2024-02-15T07:18:48;0.60;;;0.60;;
30408;SDS011;17207;52.960;5.916;2024-02-15T07:21:15;0.75;;;0.57;;
30408;SDS011;17207;52.960;5.916;2024-02-15T07:23:41;0.65;;;0.50;;
30408;SDS011;17207;52.960;5.916;2024-02-15T07:26:08;0.47;;;0.47;;
30408;SDS011;17207;52.960;5.916;2024-02-15T07:28:36;0.65;;;0.60;;
30408;SDS011;17207;52.960;5.916;2024-02-15T07:31:02;0.60;;;0.60;;
30408;SDS011;17207;52.960;5.916;2024-02-15T07:33:28;0.50;;;0.40;;
30408;SDS011;17207;52.960;5.916;2024-02-15T07:35:54;0.45;;;0.45;;
30408;SDS011;17207;52.960;5.916;2024-02-15T07:38:21;0.52;;;0.52;;
30408;SDS011;17207;52.960;5.916;2024-02-15T07:40:50;0.82;;;0.60;;
30408;SDS011;17207;52.960;5.916;2024-02-15T07:43:17;1.67;;;0.50;;
30408;SDS011;17207;52.960;5.916;2024-02-15T07:45:42;0.68;;;0.50;;
30408;SDS011;17207;52.960;5.916;2024-02-15T07:48:09;0.50;;;0.50;;
30408;SDS011;17207;52.960;5.916;2024-02-15T07:50:38;0.93;;;0.68;;
30408;SDS011;17207;52.960;5.916;2024-02-15T07:53:05;0.50;;;0.50;;
30408;SDS011;17207;52.960;5.916;2024-02-15T07:55:31;0.55;;;0.50;;
30408;SDS011;17207;52.960;5.916;2024-02-15T07:57:59;0.65;;;0.63;;
30408;SDS011;17207;52.960;5.916;2024-02-15T08:00:25;0.60;;;0.57;;
30408;SDS011;17207;52.960;5.916;2024-02-15T08:02:52;0.60;;;0.60;;
30408;SDS011;17207;52.960;5.916;2024-02-15T08:05:18;0.80;;;0.60;;
30408;SDS011;17207;52.960;5.916;2024-02-15T08:07:45;0.53;;;0.50;;
30408;SDS011;17207;52.960;5.916;2024-02-15T08:10:14;0.68;;;0.60;;
30408;SDS011;17207;52.960;5.916;2024-02-15T08:12:41;0.50;;;0.50;;
30408;SDS011;17207;52.960;5.916;2024-02-15T08:15:07;1.13;;;0.70;;
30408;SDS011;17207;52.960;5.916;2024-02-15T08:17:41;0.68;;;0.47;;
30408;SDS011;17207;52.960;5.916;2024-02-15T08:20:07;2.47;;;0.70;;
30408;SDS011;17207;52.960;5.916;2024-02-15T08:22:34;1.33;;;0.85;;
30408;SDS011;17207;52.960;5.916;2024-02-15T08:25:00;0.73;;;0.65;;
30408;SDS011;17207;52.960;5.916;2024-02-15T08:27:26;1.08;;;0.60;;
30408;SDS011;17207;52.960;5.916;2024-02-15T08:29:52;0.80;;;0.80;;
30408;SDS011;17207;52.960;5.916;2024-02-15T08:32:18;3.30;;;0.95;;
30408;SDS011;17207;52.960;5.916;2024-02-15T08:34:48;0.90;;;0.80;;
30408;SDS011;17207;52.960;5.916;2024-02-15T08:37:13;0.80;;;0.80;;
30408;SDS011;17207;52.960;5.916;2024-02-15T08:39:40;0.85;;;0.75;;
30408;SDS011;17207;52.960;5.916;2024-02-15T08:42:09;1.40;;;0.70;;
30408;SDS011;17207;52.960;5.916;2024-02-15T08:44:36;0.85;;;0.80;;
30408;SDS011;17207;52.960;5.916;2024-02-15T08:47:02;1.10;;;0.90;;
30408;SDS011;17207;52.960;5.916;2024-02-15T08:49:30;1.30;;;0.90;;
30408;SDS011;17207;52.960;5.916;2024-02-15T08:51:56;1.30;;;1.08;;
30408;SDS011;17207;52.960;5.916;2024-02-15T08:54:23;1.10;;;0.90;;
30408;SDS011;17207;52.960;5.916;2024-02-15T08:56:51;1.88;;;0.80;;
30408;SDS011;17207;52.960;5.916;2024-02-15T08:59:17;1.10;;;0.90;;
30408;SDS011;17207;52.960;5.916;2024-02-15T09:01:43;0.88;;;0.70;;
30408;SDS011;17207;52.960;5.916;2024-02-15T09:04:11;0.90;;;0.90;;
30408;SDS011;17207;52.960;5.916;2024-02-15T09:06:41;1.67;;;1.00;;
30408;SDS011;17207;52.960;5.916;2024-02-15T09:09:08;0.95;;;0.82;;
30408;SDS011;17207;52.960;5.916;2024-02-15T09:11:34;0.98;;;0.82;;
30408;SDS011;17207;52.960;5.916;2024-02-15T09:14:00;1.55;;;1.10;;
30408;SDS011;17207;52.960;5.916;2024-02-15T09:16:26;1.60;;;0.90;;
30408;SDS011;17207;52.960;5.916;2024-02-15T09:18:52;1.10;;;1.00;;
30408;SDS011;17207;52.960;5.916;2024-02-15T09:21:18;1.20;;;1.10;;
30408;SDS011;17207;52.960;5.916;2024-02-15T09:23:44;1.65;;;1.10;;
30408;SDS011;17207;52.960;5.916;2024-02-15T09:26:10;1.45;;;1.20;;
30408;SDS011;17207;52.960;5.916;2024-02-15T09:28:36;0.80;;;0.80;;
30408;SDS011;17207;52.960;5.916;2024-02-15T09:31:02;2.35;;;1.20;;
30408;SDS011;17207;52.960;5.916;2024-02-15T09:33:28;1.02;;;0.93;;
30408;SDS011;17207;52.960;5.916;2024-02-15T09:35:54;1.15;;;1.05;;
30408;SDS011;17207;52.960;5.916;2024-02-15T09:38:20;1.83;;;1.40;;
30408;SDS011;17207;52.960;5.916;2024-02-15T09:40:50;2.78;;;1.27;;
30408;SDS011;17207;52.960;5.916;2024-02-15T09:43:16;1.20;;;1.10;;
30408;SDS011;17207;52.960;5.916;2024-02-15T09:45:42;1.73;;;1.23;;
30408;SDS011;17207;52.960;5.916;2024-02-15T09:48:09;1.38;;;1.27;;
30408;SDS011;17207;52.960;5.916;2024-02-15T09:50:38;1.42;;;1.10;;
30408;SDS011;17207;52.960;5.916;2024-02-15T09:53:08;2.25;;;1.30;;
30408;SDS011;17207;52.960;5.916;2024-02-15T09:55:34;5.30;;;1.30;;
30408;SDS011;17207;52.960;5.916;2024-02-15T09:58:01;2.25;;;1.13;;
30408;SDS011;17207;52.960;5.916;2024-02-15T10:00:29;2.47;;;1.55;;
30408;SDS011;17207;52.960;5.916;2024-02-15T10:02:55;2.25;;;1.10;;
30408;SDS011;17207;52.960;5.916;2024-02-15T10:05:22;2.28;;;1.20;;
30408;SDS011;17207;52.960;5.916;2024-02-15T10:07:48;1.83;;;1.42;;
30408;SDS011;17207;52.960;5.916;2024-02-15T10:10:18;1.70;;;1.13;;
30408;SDS011;17207;52.960;5.916;2024-02-15T10:12:48;2.35;;;1.48;;
30408;SDS011;17207;52.960;5.916;2024-02-15T10:15:29;1.98;;;1.40;;
30408;SDS011;17207;52.960;5.916;2024-02-15T10:17:55;1.70;;;1.20;;
30408;SDS011;17207;52.960;5.916;2024-02-15T10:20:22;2.00;;;1.25;;
30408;SDS011;17207;52.960;5.916;2024-02-15T10:22:50;2.20;;;1.27;;
30408;SDS011;17207;52.960;5.916;2024-02-15T10:25:17;1.92;;;1.10;;
30408;SDS011;17207;52.960;5.916;2024-02-15T10:27:44;2.33;;;1.10;;
30408;SDS011;17207;52.960;5.916;2024-02-15T10:30:19;1.50;;;1.20;;
30408;SDS011;17207;52.960;5.916;2024-02-15T10:32:45;2.60;;;1.20;;
30408;SDS011;17207;52.960;5.916;2024-02-15T10:35:19;1.38;;;1.08;;
30408;SDS011;17207;52.960;5.916;2024-02-15T10:37:46;2.10;;;1.00;;
30408;SDS011;17207;52.960;5.916;2024-02-15T10:42:40;1.25;;;1.08;;
30408;SDS011;17207;52.960;5.916;2024-02-15T10:47:35;1.48;;;1.23;;
30408;SDS011;17207;52.960;5.916;2024-02-15T10:50:05;1.13;;;1.00;;
30408;SDS011;17207;52.960;5.916;2024-02-15T10:52:31;0.77;;;0.73;;
30408;SDS011;17207;52.960;5.916;2024-02-15T10:57:24;0.98;;;0.88;;
30408;SDS011;17207;52.960;5.916;2024-02-15T10:59:55;1.08;;;0.98;;
30408;SDS011;17207;52.960;5.916;2024-02-15T11:02:29;2.95;;;1.13;;
30408;SDS011;17207;52.960;5.916;2024-02-15T11:04:58;4.03;;;1.30;;
30408;SDS011;17207;52.960;5.916;2024-02-15T11:07:27;1.23;;;1.00;;
30408;SDS011;17207;52.960;5.916;2024-02-15T11:09:57;2.88;;;0.95;;
30408;SDS011;17207;52.960;5.916;2024-02-15T11:12:24;0.90;;;0.90;;
30408;SDS011;17207;52.960;5.916;2024-02-15T11:14:51;0.80;;;0.80;;
30408;SDS011;17207;52.960;5.916;2024-02-15T11:20:06;1.20;;;0.85;;
30408;SDS011;17207;52.960;5.916;2024-02-15T11:22:34;0.95;;;0.90;;
30408;SDS011;17207;52.960;5.916;2024-02-15T11:25:07;1.20;;;0.90;;
30408;SDS011;17207;52.960;5.916;2024-02-15T11:27:36;3.42;;;1.15;;
30408;SDS011;17207;52.960;5.916;2024-02-15T11:30:03;1.70;;;1.00;;
30408;SDS011;17207;52.960;5.916;2024-02-15T11:32:50;1.60;;;1.17;;
30408;SDS011;17207;52.960;5.916;2024-02-15T11:35:22;3.92;;;1.02;;
30408;SDS011;17207;52.960;5.916;2024-02-15T11:40:17;1.42;;;1.00;;
30408;SDS011;17207;52.960;5.916;2024-02-15T11:42:44;1.30;;;1.05;;
30408;SDS011;17207;52.960;5.916;2024-02-15T11:45:11;2.35;;;1.20;;
30408;SDS011;17207;52.960;5.916;2024-02-15T11:47:38;1.67;;;1.20;;
30408;SDS011;17207;52.960;5.916;2024-02-15T11:50:08;2.38;;;1.10;;
30408;SDS011;17207;52.960;5.916;2024-02-15T11:52:40;2.47;;;1.30;;
30408;SDS011;17207;52.960;5.916;2024-02-15T11:55:07;3.42;;;1.10;;
30408;SDS011;17207;52.960;5.916;2024-02-15T11:57:38;2.45;;;1.20;;
30408;SDS011;17207;52.960;5.916;2024-02-15T12:00:19;1.73;;;1.30;;
30408;SDS011;17207;52.960;5.916;2024-02-15T12:03:04;2.67;;;1.42;;
30408;SDS011;17207;52.960;5.916;2024-02-15T12:05:53;1.40;;;1.30;;
30408;SDS011;17207;52.960;5.916;2024-02-15T12:08:38;3.40;;;1.25;;
30408;SDS011;17207;52.960;5.916;2024-02-15T12:11:23;1.95;;;1.30;;
30408;SDS011;17207;52.960;5.916;2024-02-15T12:14:12;3.75;;;1.30;;
30408;SDS011;17207;52.960;5.916;2024-02-15T12:17:00;2.30;;;1.50;;
30408;SDS011;17207;52.960;5.916;2024-02-15T12:19:44;2.58;;;1.65;;
30408;SDS011;17207;52.960;5.916;2024-02-15T12:22:10;2.20;;;1.30;;
30408;SDS011;17207;52.960;5.916;2024-02-15T12:24:37;5.40;;;1.60;;
30408;SDS011;17207;52.960;5.916;2024-02-15T12:27:03;1.60;;;1.42;;
30408;SDS011;17207;52.960;5.916;2024-02-15T12:29:30;2.13;;;1.50;;
30408;SDS011;17207;52.960;5.916;2024-02-15T12:31:57;2.43;;;1.80;;
30408;SDS011;17207;52.960;5.916;2024-02-15T12:34:24;3.05;;;1.90;;
30408;SDS011;17207;52.960;5.916;2024-02-15T12:36:51;5.90;;;1.50;;
30408;SDS011;17207;52.960;5.916;2024-02-15T12:39:30;4.32;;;1.77;;
30408;SDS011;17207;52.960;5.916;2024-02-15T12:42:00;4.00;;;1.48;;
30408;SDS011;17207;52.960;5.916;2024-02-15T12:44:26;1.98;;;1.42;;
30408;SDS011;17207;52.960;5.916;2024-02-15T12:46:57;4.35;;;1.70;;
30408;SDS011;17207;52.960;5.916;2024-02-15T12:51:51;2.55;;;1.63;;
30408;SDS011;17207;52.960;5.916;2024-02-15T12:54:21;4.93;;;1.70;;
30408;SDS011;17207;52.960;5.916;2024-02-15T12:56:47;3.90;;;1.80;;
30408;SDS011;17207;52.960;5.916;2024-02-15T12:59:19;3.00;;;1.50;;
30408;SDS011;17207;52.960;5.916;2024-02-15T13:01:45;2.42;;;1.65;;
30408;SDS011;17207;52.960;5.916;2024-02-15T13:04:21;1.83;;;1.42;;
30408;SDS011;17207;52.960;5.916;2024-02-15T13:06:48;1.58;;;1.48;;
30408;SDS011;17207;52.960;5.916;2024-02-15T13:09:14;2.13;;;1.38;;
30408;SDS011;17207;52.960;5.916;2024-02-15T13:11:40;2.28;;;1.63;;
30408;SDS011;17207;52.960;5.916;2024-02-15T13:14:10;4.05;;;2.20;;
30408;SDS011;17207;52.960;5.916;2024-02-15T13:16:36;1.63;;;1.50;;
30408;SDS011;17207;52.960;5.916;2024-02-15T13:19:02;1.88;;;1.48;;
30408;SDS011;17207;52.960;5.916;2024-02-15T13:21:28;2.10;;;1.88;;
30408;SDS011;17207;52.960;5.916;2024-02-15T13:23:55;2.45;;;1.63;;
30408;SDS011;17207;52.960;5.916;2024-02-15T13:26:21;1.80;;;1.63;;
30408;SDS011;17207;52.960;5.916;2024-02-15T13:28:50;3.00;;;1.70;;
30408;SDS011;17207;52.960;5.916;2024-02-15T13:31:16;5.22;;;1.55;;
30408;SDS011;17207;52.960;5.916;2024-02-15T13:33:42;3.35;;;1.92;;
30408;SDS011;17207;52.960;5.916;2024-02-15T13:36:08;6.30;;;1.85;;
30408;SDS011;17207;52.960;5.916;2024-02-15T13:38:39;2.15;;;1.83;;
30408;SDS011;17207;52.960;5.916;2024-02-15T13:41:05;1.75;;;1.50;;
30408;SDS011;17207;52.960;5.916;2024-02-15T13:43:30;3.13;;;1.95;;
30408;SDS011;17207;52.960;5.916;2024-02-15T13:45:57;2.45;;;1.65;;
30408;SDS011;17207;52.960;5.916;2024-02-15T13:48:25;2.20;;;1.58;;
30408;SDS011;17207;52.960;5.916;2024-02-15T13:50:57;6.55;;;2.15;;
30408;SDS011;17207;52.960;5.916;2024-02-15T13:53:23;2.33;;;1.70;;
30408;SDS011;17207;52.960;5.916;2024-02-15T13:55:53;2.47;;;1.75;;
30408;SDS011;17207;52.960;5.916;2024-02-15T13:58:20;2.28;;;1.83;;
30408;SDS011;17207;52.960;5.916;2024-02-15T14:00:46;2.63;;;1.58;;
30408;SDS011;17207;52.960;5.916;2024-02-15T14:03:13;2.92;;;1.75;;
30408;SDS011;17207;52.960;5.916;2024-02-15T14:05:40;2.95;;;2.25;;
30408;SDS011;17207;52.960;5.916;2024-02-15T14:08:07;3.55;;;1.77;;
30408;SDS011;17207;52.960;5.916;2024-02-15T14:10:34;2.45;;;1.48;;
30408;SDS011;17207;52.960;5.916;2024-02-15T14:13:04;2.72;;;1.63;;
30408;SDS011;17207;52.960;5.916;2024-02-15T14:15:30;1.77;;;1.40;;
30408;SDS011;17207;52.960;5.916;2024-02-15T14:17:59;3.78;;;1.65;;
30408;SDS011;17207;52.960;5.916;2024-02-15T14:20:26;2.10;;;1.48;;
30408;SDS011;17207;52.960;5.916;2024-02-15T14:22:53;3.58;;;2.20;;
30408;SDS011;17207;52.960;5.916;2024-02-15T14:25:22;2.20;;;1.77;;
30408;SDS011;17207;52.960;5.916;2024-02-15T14:27:48;2.88;;;1.50;;
30408;SDS011;17207;52.960;5.916;2024-02-15T14:30:15;2.50;;;1.85;;
30408;SDS011;17207;52.960;5.916;2024-02-15T14:32:59;4.55;;;1.77;;
30408;SDS011;17207;52.960;5.916;2024-02-15T14:35:29;2.85;;;1.90;;
30408;SDS011;17207;52.960;5.916;2024-02-15T14:37:58;5.43;;;1.60;;
30408;SDS011;17207;52.960;5.916;2024-02-15T14:40:27;3.10;;;1.77;;
30408;SDS011;17207;52.960;5.916;2024-02-15T14:42:54;2.40;;;1.90;;
30408;SDS011;17207;52.960;5.916;2024-02-15T14:45:20;2.13;;;1.67;;
30408;SDS011;17207;52.960;5.916;2024-02-15T14:47:47;2.72;;;1.60;;
30408;SDS011;17207;52.960;5.916;2024-02-15T14:50:13;2.85;;;1.83;;
30408;SDS011;17207;52.960;5.916;2024-02-15T14:52:39;4.15;;;2.13;;
30408;SDS011;17207;52.960;5.916;2024-02-15T14:55:06;2.30;;;1.65;;
30408;SDS011;17207;52.960;5.916;2024-02-15T14:57:35;2.03;;;1.70;;
30408;SDS011;17207;52.960;5.916;2024-02-15T15:00:03;2.35;;;1.70;;
30408;SDS011;17207;52.960;5.916;2024-02-15T15:02:30;3.47;;;1.70;;
30408;SDS011;17207;52.960;5.916;2024-02-15T15:04:56;1.92;;;1.70;;
30408;SDS011;17207;52.960;5.916;2024-02-15T15:07:41;2.47;;;1.80;;
30408;SDS011;17207;52.960;5.916;2024-02-15T15:10:26;3.78;;;1.90;;